sensor_id;sensor_type;location;lat;lon;timestamp;P1;durP1;ratioP1;P2;durP2;ratioP2
28802;SDS011;15949;55.656;37.422;2023-09-19T00:04:21;31.38;;;21.42;;
28802;SDS011;15949;55.656;37.422;2023-09-19T00:09:34;31.42;;;21.13;;
28802;SDS011;15949;55.656;37.422;2023-09-19T00:14:42;29.58;;;19.02;;
28802;SDS011;15949;55.656;37.422;2023-09-19T00:19:48;33.28;;;20.50;;
28802;SDS011;15949;55.656;37.422;2023-09-19T00:24:53;34.20;;;20.85;;
28802;SDS011;15949;55.656;37.422;2023-09-19T00:30:00;37.95;;;22.00;;
28802;SDS011;15949;55.656;37.422;2023-09-19T00:35:06;33.03;;;21.05;;
28802;SDS011;15949;55.656;37.422;2023-09-19T00:40:14;36.20;;;21.77;;
28802;SDS011;15949;55.656;37.422;2023-09-19T00:45:23;38.28;;;21.05;;
28802;SDS011;15949;55.656;37.422;2023-09-19T00:50:29;30.45;;;20.33;;
28802;SDS011;15949;55.656;37.422;2023-09-19T00:55:37;36.85;;;23.13;;
28802;SDS011;15949;55.656;37.422;2023-09-19T01:00:43;36.03;;;23.80;;
28802;SDS011;15949;55.656;37.422;2023-09-19T01:05:49;42.10;;;25.42;;
28802;SDS011;15949;55.656;37.422;2023-09-19T01:10:56;46.90;;;26.98;;
28802;SDS011;15949;55.656;37.422;2023-09-19T01:16:42;38.60;;;25.20;;
28802;SDS011;15949;55.656;37.422;2023-09-19T01:32:25;38.45;;;25.08;;
28802;SDS011;15949;55.656;37.422;2023-09-19T01:37:31;45.13;;;30.40;;
28802;SDS011;15949;55.656;37.422;2023-09-19T01:47:49;41.15;;;28.33;;
28802;SDS011;15949;55.656;37.422;2023-09-19T01:53:06;44.55;;;29.08;;
28802;SDS011;15949;55.656;37.422;2023-09-19T01:58:16;48.08;;;31.73;;
28802;SDS011;15949;55.656;37.422;2023-09-19T02:03:24;45.25;;;30.50;;
28802;SDS011;15949;55.656;37.422;2023-09-19T02:08:32;50.28;;;32.38;;
28802;SDS011;15949;55.656;37.422;2023-09-19T02:13:39;57.58;;;34.63;;
28802;SDS011;15949;55.656;37.422;2023-09-19T02:18:49;60.83;;;34.40;;
28802;SDS011;15949;55.656;37.422;2023-09-19T02:23:55;69.30;;;40.58;;
28802;SDS011;15949;55.656;37.422;2023-09-19T02:29:01;85.70;;;46.92;;
28802;SDS011;15949;55.656;37.422;2023-09-19T02:34:09;98.85;;;50.53;;
28802;SDS011;15949;55.656;37.422;2023-09-19T02:39:15;102.40;;;53.63;;
28802;SDS011;15949;55.656;37.422;2023-09-19T02:44:21;106.40;;;54.92;;
28802;SDS011;15949;55.656;37.422;2023-09-19T02:49:26;102.13;;;55.35;;
28802;SDS011;15949;55.656;37.422;2023-09-19T02:54:32;103.57;;;56.13;;
28802;SDS011;15949;55.656;37.422;2023-09-19T02:59:38;108.00;;;55.03;;
28802;SDS011;15949;55.656;37.422;2023-09-19T03:04:43;117.45;;;59.65;;
28802;SDS011;15949;55.656;37.422;2023-09-19T03:09:50;128.50;;;64.13;;
28802;SDS011;15949;55.656;37.422;2023-09-19T03:14:58;126.53;;;61.60;;
28802;SDS011;15949;55.656;37.422;2023-09-19T03:20:05;132.68;;;66.15;;
28802;SDS011;15949;55.656;37.422;2023-09-19T03:25:13;127.13;;;62.53;;
28802;SDS011;15949;55.656;37.422;2023-09-19T03:30:19;126.05;;;62.53;;
28802;SDS011;15949;55.656;37.422;2023-09-19T03:35:25;123.88;;;61.33;;
28802;SDS011;15949;55.656;37.422;2023-09-19T03:40:30;116.95;;;59.55;;
28802;SDS011;15949;55.656;37.422;2023-09-19T03:45:36;122.20;;;58.88;;
28802;SDS011;15949;55.656;37.422;2023-09-19T03:50:43;104.40;;;55.03;;
28802;SDS011;15949;55.656;37.422;2023-09-19T03:55:49;118.05;;;57.67;;
28802;SDS011;15949;55.656;37.422;2023-09-19T04:00:55;90.47;;;49.85;;
28802;SDS011;15949;55.656;37.422;2023-09-19T04:06:01;91.30;;;48.92;;
28802;SDS011;15949;55.656;37.422;2023-09-19T04:11:07;102.82;;;50.63;;
28802;SDS011;15949;55.656;37.422;2023-09-19T04:16:13;102.72;;;50.67;;
28802;SDS011;15949;55.656;37.422;2023-09-19T04:21:19;77.90;;;45.42;;
28802;SDS011;15949;55.656;37.422;2023-09-19T04:26:24;77.93;;;45.03;;
28802;SDS011;15949;55.656;37.422;2023-09-19T04:31:31;72.90;;;42.33;;
28802;SDS011;15949;55.656;37.422;2023-09-19T04:36:37;66.60;;;40.90;;
28802;SDS011;15949;55.656;37.422;2023-09-19T04:41:42;68.80;;;42.08;;
28802;SDS011;15949;55.656;37.422;2023-09-19T04:46:50;62.53;;;39.33;;
28802;SDS011;15949;55.656;37.422;2023-09-19T04:51:56;52.97;;;33.45;;
28802;SDS011;15949;55.656;37.422;2023-09-19T04:57:01;45.83;;;32.08;;
28802;SDS011;15949;55.656;37.422;2023-09-19T05:02:07;46.15;;;30.48;;
28802;SDS011;15949;55.656;37.422;2023-09-19T05:07:17;40.75;;;29.77;;
28802;SDS011;15949;55.656;37.422;2023-09-19T05:12:22;36.97;;;27.38;;
28802;SDS011;15949;55.656;37.422;2023-09-19T05:17:28;34.95;;;26.00;;
28802;SDS011;15949;55.656;37.422;2023-09-19T05:22:34;38.88;;;27.45;;
28802;SDS011;15949;55.656;37.422;2023-09-19T05:27:40;40.17;;;27.30;;
28802;SDS011;15949;55.656;37.422;2023-09-19T05:32:45;38.33;;;26.92;;
28802;SDS011;15949;55.656;37.422;2023-09-19T05:37:51;33.15;;;24.23;;
28802;SDS011;15949;55.656;37.422;2023-09-19T05:42:58;26.73;;;17.85;;
28802;SDS011;15949;55.656;37.422;2023-09-19T05:48:13;26.88;;;19.15;;
28802;SDS011;15949;55.656;37.422;2023-09-19T05:53:20;27.33;;;19.67;;
28802;SDS011;15949;55.656;37.422;2023-09-19T05:58:28;27.10;;;21.95;;
28802;SDS011;15949;55.656;37.422;2023-09-19T06:03:34;28.77;;;22.67;;
28802;SDS011;15949;55.656;37.422;2023-09-19T06:08:40;33.35;;;23.85;;
28802;SDS011;15949;55.656;37.422;2023-09-19T06:13:46;34.10;;;22.65;;
28802;SDS011;15949;55.656;37.422;2023-09-19T06:18:52;28.48;;;22.75;;
28802;SDS011;15949;55.656;37.422;2023-09-19T06:23:58;31.60;;;22.80;;
28802;SDS011;15949;55.656;37.422;2023-09-19T06:29:04;33.58;;;23.30;;
28802;SDS011;15949;55.656;37.422;2023-09-19T06:34:12;35.20;;;23.85;;
28802;SDS011;15949;55.656;37.422;2023-09-19T06:39:20;33.88;;;22.88;;
28802;SDS011;15949;55.656;37.422;2023-09-19T06:44:27;34.90;;;24.52;;
28802;SDS011;15949;55.656;37.422;2023-09-19T06:49:34;35.22;;;24.55;;
28802;SDS011;15949;55.656;37.422;2023-09-19T06:54:40;35.30;;;25.10;;
28802;SDS011;15949;55.656;37.422;2023-09-19T06:59:46;37.25;;;25.48;;
28802;SDS011;15949;55.656;37.422;2023-09-19T07:04:52;39.35;;;27.95;;
28802;SDS011;15949;55.656;37.422;2023-09-19T07:09:58;36.95;;;28.08;;
28802;SDS011;15949;55.656;37.422;2023-09-19T07:15:03;43.70;;;28.58;;
28802;SDS011;15949;55.656;37.422;2023-09-19T07:20:11;35.00;;;27.83;;
28802;SDS011;15949;55.656;37.422;2023-09-19T07:25:21;38.10;;;28.55;;
28802;SDS011;15949;55.656;37.422;2023-09-19T07:30:27;35.17;;;26.52;;
28802;SDS011;15949;55.656;37.422;2023-09-19T07:35:33;35.80;;;25.80;;
28802;SDS011;15949;55.656;37.422;2023-09-19T07:40:39;35.97;;;26.15;;
28802;SDS011;15949;55.656;37.422;2023-09-19T07:45:44;34.33;;;24.67;;
28802;SDS011;15949;55.656;37.422;2023-09-19T07:50:50;31.52;;;23.92;;
28802;SDS011;15949;55.656;37.422;2023-09-19T07:56:03;30.67;;;22.40;;
28802;SDS011;15949;55.656;37.422;2023-09-19T08:01:09;31.88;;;22.05;;
28802;SDS011;15949;55.656;37.422;2023-09-19T08:06:15;37.25;;;20.85;;
28802;SDS011;15949;55.656;37.422;2023-09-19T08:11:22;33.22;;;19.85;;
28802;SDS011;15949;55.656;37.422;2023-09-19T08:16:29;28.02;;;20.60;;
28802;SDS011;15949;55.656;37.422;2023-09-19T08:21:35;28.88;;;19.83;;
28802;SDS011;15949;55.656;37.422;2023-09-19T08:26:41;25.73;;;19.33;;
28802;SDS011;15949;55.656;37.422;2023-09-19T08:31:47;26.55;;;18.85;;
28802;SDS011;15949;55.656;37.422;2023-09-19T08:36:54;24.38;;;18.83;;
28802;SDS011;15949;55.656;37.422;2023-09-19T08:42:03;26.45;;;19.67;;
28802;SDS011;15949;55.656;37.422;2023-09-19T08:47:10;31.25;;;19.13;;
28802;SDS011;15949;55.656;37.422;2023-09-19T08:57:39;28.92;;;20.02;;
28802;SDS011;15949;55.656;37.422;2023-09-19T09:02:48;25.05;;;19.23;;
28802;SDS011;15949;55.656;37.422;2023-09-19T09:07:55;27.38;;;19.20;;
28802;SDS011;15949;55.656;37.422;2023-09-19T09:13:02;26.50;;;19.02;;
28802;SDS011;15949;55.656;37.422;2023-09-19T09:18:12;24.02;;;18.33;;
28802;SDS011;15949;55.656;37.422;2023-09-19T09:23:18;29.55;;;18.98;;
28802;SDS011;15949;55.656;37.422;2023-09-19T09:28:24;28.42;;;18.00;;
28802;SDS011;15949;55.656;37.422;2023-09-19T09:33:31;24.38;;;17.30;;
28802;SDS011;15949;55.656;37.422;2023-09-19T09:38:47;26.25;;;17.00;;
28802;SDS011;15949;55.656;37.422;2023-09-19T09:44:04;25.10;;;16.55;;
28802;SDS011;15949;55.656;37.422;2023-09-19T09:49:22;26.40;;;16.83;;
28802;SDS011;15949;55.656;37.422;2023-09-19T09:54:57;23.60;;;15.70;;
28802;SDS011;15949;55.656;37.422;2023-09-19T10:00:16;28.40;;;16.00;;
28802;SDS011;15949;55.656;37.422;2023-09-19T10:05:25;28.63;;;16.25;;
28802;SDS011;15949;55.656;37.422;2023-09-19T10:10:34;28.67;;;16.10;;
28802;SDS011;15949;55.656;37.422;2023-09-19T10:15:49;23.27;;;14.85;;
28802;SDS011;15949;55.656;37.422;2023-09-19T10:20:56;23.67;;;14.45;;
28802;SDS011;15949;55.656;37.422;2023-09-19T10:26:02;23.17;;;14.20;;
28802;SDS011;15949;55.656;37.422;2023-09-19T10:31:10;20.73;;;13.98;;
28802;SDS011;15949;55.656;37.422;2023-09-19T10:36:19;23.08;;;13.77;;
28802;SDS011;15949;55.656;37.422;2023-09-19T10:41:27;25.48;;;13.27;;
28802;SDS011;15949;55.656;37.422;2023-09-19T10:46:34;21.25;;;14.30;;
28802;SDS011;15949;55.656;37.422;2023-09-19T10:56:50;27.98;;;12.77;;
28802;SDS011;15949;55.656;37.422;2023-09-19T11:01:56;21.02;;;14.27;;
28802;SDS011;15949;55.656;37.422;2023-09-19T11:07:03;26.83;;;12.52;;
28802;SDS011;15949;55.656;37.422;2023-09-19T11:17:34;22.48;;;12.15;;
28802;SDS011;15949;55.656;37.422;2023-09-19T11:33:22;26.38;;;12.38;;
28802;SDS011;15949;55.656;37.422;2023-09-19T11:49:09;16.30;;;11.95;;
28802;SDS011;15949;55.656;37.422;2023-09-19T11:54:25;23.02;;;11.75;;
28802;SDS011;15949;55.656;37.422;2023-09-19T11:59:38;18.17;;;9.45;;
28802;SDS011;15949;55.656;37.422;2023-09-19T12:04:44;16.42;;;9.15;;
28802;SDS011;15949;55.656;37.422;2023-09-19T12:10:05;13.68;;;8.25;;
28802;SDS011;15949;55.656;37.422;2023-09-19T12:15:17;14.52;;;7.25;;
28802;SDS011;15949;55.656;37.422;2023-09-19T12:20:45;11.40;;;6.40;;
28802;SDS011;15949;55.656;37.422;2023-09-19T12:25:56;11.05;;;6.43;;
28802;SDS011;15949;55.656;37.422;2023-09-19T12:31:08;7.90;;;5.75;;
28802;SDS011;15949;55.656;37.422;2023-09-19T12:36:20;7.93;;;5.57;;
28802;SDS011;15949;55.656;37.422;2023-09-19T12:41:34;9.30;;;6.63;;
28802;SDS011;15949;55.656;37.422;2023-09-19T12:46:39;15.70;;;6.72;;
28802;SDS011;15949;55.656;37.422;2023-09-19T12:51:47;12.10;;;6.82;;
28802;SDS011;15949;55.656;37.422;2023-09-19T12:56:53;10.75;;;6.22;;
28802;SDS011;15949;55.656;37.422;2023-09-19T13:02:03;11.40;;;5.90;;
28802;SDS011;15949;55.656;37.422;2023-09-19T13:07:39;10.32;;;6.13;;
28802;SDS011;15949;55.656;37.422;2023-09-19T13:12:49;12.10;;;6.35;;
28802;SDS011;15949;55.656;37.422;2023-09-19T13:17:54;13.07;;;5.93;;
28802;SDS011;15949;55.656;37.422;2023-09-19T13:23:00;7.90;;;6.32;;
28802;SDS011;15949;55.656;37.422;2023-09-19T13:28:13;9.18;;;6.07;;
28802;SDS011;15949;55.656;37.422;2023-09-19T13:33:19;10.07;;;7.18;;
28802;SDS011;15949;55.656;37.422;2023-09-19T13:38:26;8.15;;;6.20;;
28802;SDS011;15949;55.656;37.422;2023-09-19T13:43:31;10.07;;;7.00;;
28802;SDS011;15949;55.656;37.422;2023-09-19T13:48:37;15.32;;;6.47;;
28802;SDS011;15949;55.656;37.422;2023-09-19T13:53:43;8.38;;;5.95;;
28802;SDS011;15949;55.656;37.422;2023-09-19T13:58:49;10.43;;;6.43;;
28802;SDS011;15949;55.656;37.422;2023-09-19T14:03:54;10.02;;;6.15;;
28802;SDS011;15949;55.656;37.422;2023-09-19T14:09:02;11.02;;;6.85;;
28802;SDS011;15949;55.656;37.422;2023-09-19T14:14:09;16.17;;;7.30;;
28802;SDS011;15949;55.656;37.422;2023-09-19T14:19:14;22.73;;;8.77;;
28802;SDS011;15949;55.656;37.422;2023-09-19T14:24:21;25.83;;;9.23;;
28802;SDS011;15949;55.656;37.422;2023-09-19T14:29:29;19.45;;;9.70;;
28802;SDS011;15949;55.656;37.422;2023-09-19T14:34:35;20.63;;;8.35;;
28802;SDS011;15949;55.656;37.422;2023-09-19T14:39:46;14.13;;;7.72;;
28802;SDS011;15949;55.656;37.422;2023-09-19T14:44:53;12.35;;;7.63;;
28802;SDS011;15949;55.656;37.422;2023-09-19T14:49:58;14.13;;;7.30;;
28802;SDS011;15949;55.656;37.422;2023-09-19T14:55:11;11.30;;;7.20;;
28802;SDS011;15949;55.656;37.422;2023-09-19T15:05:28;11.32;;;7.50;;
28802;SDS011;15949;55.656;37.422;2023-09-19T15:10:37;12.20;;;7.00;;
28802;SDS011;15949;55.656;37.422;2023-09-19T15:15:42;12.18;;;7.63;;
28802;SDS011;15949;55.656;37.422;2023-09-19T15:20:50;14.80;;;7.78;;
28802;SDS011;15949;55.656;37.422;2023-09-19T15:25:56;24.67;;;8.80;;
28802;SDS011;15949;55.656;37.422;2023-09-19T15:31:02;16.38;;;9.48;;
28802;SDS011;15949;55.656;37.422;2023-09-19T15:36:11;18.67;;;9.15;;
28802;SDS011;15949;55.656;37.422;2023-09-19T15:41:19;19.27;;;9.23;;
28802;SDS011;15949;55.656;37.422;2023-09-19T15:46:26;23.98;;;9.63;;
28802;SDS011;15949;55.656;37.422;2023-09-19T15:51:32;17.52;;;9.40;;
28802;SDS011;15949;55.656;37.422;2023-09-19T15:56:38;18.80;;;9.73;;
28802;SDS011;15949;55.656;37.422;2023-09-19T16:01:46;23.38;;;10.95;;
28802;SDS011;15949;55.656;37.422;2023-09-19T16:06:52;21.15;;;10.93;;
28802;SDS011;15949;55.656;37.422;2023-09-19T16:11:57;20.35;;;11.75;;
28802;SDS011;15949;55.656;37.422;2023-09-19T16:17:03;23.77;;;12.43;;
28802;SDS011;15949;55.656;37.422;2023-09-19T16:22:09;27.02;;;13.02;;
28802;SDS011;15949;55.656;37.422;2023-09-19T16:27:15;31.08;;;17.35;;
28802;SDS011;15949;55.656;37.422;2023-09-19T16:37:30;31.80;;;17.05;;
28802;SDS011;15949;55.656;37.422;2023-09-19T16:42:35;43.80;;;24.05;;
28802;SDS011;15949;55.656;37.422;2023-09-19T16:47:41;34.28;;;20.35;;
28802;SDS011;15949;55.656;37.422;2023-09-19T16:52:47;39.85;;;17.65;;
28802;SDS011;15949;55.656;37.422;2023-09-19T16:57:53;29.80;;;15.95;;
28802;SDS011;15949;55.656;37.422;2023-09-19T17:02:59;34.75;;;15.88;;
28802;SDS011;15949;55.656;37.422;2023-09-19T17:08:09;26.42;;;13.95;;
28802;SDS011;15949;55.656;37.422;2023-09-19T17:18:20;25.55;;;12.95;;
28802;SDS011;15949;55.656;37.422;2023-09-19T17:23:29;27.48;;;13.82;;
28802;SDS011;15949;55.656;37.422;2023-09-19T17:28:39;24.50;;;13.02;;
28802;SDS011;15949;55.656;37.422;2023-09-19T17:33:47;24.33;;;13.52;;
28802;SDS011;15949;55.656;37.422;2023-09-19T17:38:54;27.58;;;13.05;;
28802;SDS011;15949;55.656;37.422;2023-09-19T17:44:04;24.98;;;12.75;;
28802;SDS011;15949;55.656;37.422;2023-09-19T17:49:11;21.45;;;12.90;;
28802;SDS011;15949;55.656;37.422;2023-09-19T17:54:18;21.65;;;13.45;;
28802;SDS011;15949;55.656;37.422;2023-09-19T17:59:24;19.83;;;14.20;;
28802;SDS011;15949;55.656;37.422;2023-09-19T18:04:29;26.58;;;14.40;;
28802;SDS011;15949;55.656;37.422;2023-09-19T18:09:35;26.98;;;14.88;;
28802;SDS011;15949;55.656;37.422;2023-09-19T18:14:45;24.58;;;15.45;;
28802;SDS011;15949;55.656;37.422;2023-09-19T18:19:50;31.97;;;16.37;;
28802;SDS011;15949;55.656;37.422;2023-09-19T18:24:56;27.10;;;16.88;;
28802;SDS011;15949;55.656;37.422;2023-09-19T18:30:02;26.08;;;17.08;;
28802;SDS011;15949;55.656;37.422;2023-09-19T18:35:08;28.23;;;16.95;;
28802;SDS011;15949;55.656;37.422;2023-09-19T18:40:13;29.10;;;16.45;;
28802;SDS011;15949;55.656;37.422;2023-09-19T18:45:19;27.85;;;16.77;;
28802;SDS011;15949;55.656;37.422;2023-09-19T18:50:26;29.55;;;17.35;;
28802;SDS011;15949;55.656;37.422;2023-09-19T18:55:32;26.80;;;16.58;;
28802;SDS011;15949;55.656;37.422;2023-09-19T19:00:38;24.30;;;16.55;;
28802;SDS011;15949;55.656;37.422;2023-09-19T19:05:45;27.70;;;15.20;;
28802;SDS011;15949;55.656;37.422;2023-09-19T19:10:51;29.05;;;15.43;;
28802;SDS011;15949;55.656;37.422;2023-09-19T19:15:57;23.67;;;16.45;;
28802;SDS011;15949;55.656;37.422;2023-09-19T19:21:06;22.73;;;16.27;;
28802;SDS011;15949;55.656;37.422;2023-09-19T19:26:16;22.38;;;16.15;;
28802;SDS011;15949;55.656;37.422;2023-09-19T19:31:22;25.50;;;16.20;;
28802;SDS011;15949;55.656;37.422;2023-09-19T19:36:29;22.60;;;15.48;;
28802;SDS011;15949;55.656;37.422;2023-09-19T19:41:34;22.30;;;15.05;;
28802;SDS011;15949;55.656;37.422;2023-09-19T19:46:43;26.70;;;15.90;;
28802;SDS011;15949;55.656;37.422;2023-09-19T19:51:49;21.33;;;13.60;;
28802;SDS011;15949;55.656;37.422;2023-09-19T19:56:55;18.10;;;14.07;;
28802;SDS011;15949;55.656;37.422;2023-09-19T20:02:01;17.45;;;12.23;;
28802;SDS011;15949;55.656;37.422;2023-09-19T20:07:08;15.50;;;12.43;;
28802;SDS011;15949;55.656;37.422;2023-09-19T20:12:15;17.23;;;12.10;;
28802;SDS011;15949;55.656;37.422;2023-09-19T20:17:20;21.63;;;12.45;;
28802;SDS011;15949;55.656;37.422;2023-09-19T20:22:29;16.75;;;11.07;;
28802;SDS011;15949;55.656;37.422;2023-09-19T20:27:34;17.27;;;11.77;;
28802;SDS011;15949;55.656;37.422;2023-09-19T20:32:40;13.93;;;11.18;;
28802;SDS011;15949;55.656;37.422;2023-09-19T20:37:46;16.17;;;12.00;;
28802;SDS011;15949;55.656;37.422;2023-09-19T20:42:55;16.93;;;11.57;;
28802;SDS011;15949;55.656;37.422;2023-09-19T20:48:01;13.07;;;11.57;;
28802;SDS011;15949;55.656;37.422;2023-09-19T20:53:07;17.98;;;12.32;;
28802;SDS011;15949;55.656;37.422;2023-09-19T20:58:13;16.85;;;12.25;;
28802;SDS011;15949;55.656;37.422;2023-09-19T21:03:19;14.07;;;11.55;;
28802;SDS011;15949;55.656;37.422;2023-09-19T21:08:25;16.58;;;11.82;;
28802;SDS011;15949;55.656;37.422;2023-09-19T21:13:30;16.23;;;11.82;;
28802;SDS011;15949;55.656;37.422;2023-09-19T21:18:37;18.67;;;11.60;;
28802;SDS011;15949;55.656;37.422;2023-09-19T21:23:44;17.10;;;11.25;;
28802;SDS011;15949;55.656;37.422;2023-09-19T21:28:49;16.05;;;12.00;;
28802;SDS011;15949;55.656;37.422;2023-09-19T21:33:55;14.85;;;11.43;;
28802;SDS011;15949;55.656;37.422;2023-09-19T21:39:01;16.40;;;11.07;;
28802;SDS011;15949;55.656;37.422;2023-09-19T21:44:07;14.98;;;10.85;;
28802;SDS011;15949;55.656;37.422;2023-09-19T21:49:13;14.93;;;10.57;;
28802;SDS011;15949;55.656;37.422;2023-09-19T21:54:19;14.45;;;10.90;;
28802;SDS011;15949;55.656;37.422;2023-09-19T21:59:24;16.13;;;10.80;;
28802;SDS011;15949;55.656;37.422;2023-09-19T22:04:30;12.30;;;10.60;;
28802;SDS011;15949;55.656;37.422;2023-09-19T22:09:36;15.13;;;9.82;;
28802;SDS011;15949;55.656;37.422;2023-09-19T22:14:42;16.33;;;10.57;;
28802;SDS011;15949;55.656;37.422;2023-09-19T22:19:48;15.40;;;10.13;;
28802;SDS011;15949;55.656;37.422;2023-09-19T22:24:53;18.50;;;10.52;;
28802;SDS011;15949;55.656;37.422;2023-09-19T22:30:02;14.10;;;9.93;;
28802;SDS011;15949;55.656;37.422;2023-09-19T22:35:10;14.27;;;10.40;;
28802;SDS011;15949;55.656;37.422;2023-09-19T22:40:16;16.48;;;11.00;;
28802;SDS011;15949;55.656;37.422;2023-09-19T22:45:33;16.45;;;10.45;;
28802;SDS011;15949;55.656;37.422;2023-09-19T22:50:41;16.15;;;10.70;;
28802;SDS011;15949;55.656;37.422;2023-09-19T22:55:53;16.58;;;10.82;;
28802;SDS011;15949;55.656;37.422;2023-09-19T23:01:09;16.45;;;10.07;;
28802;SDS011;15949;55.656;37.422;2023-09-19T23:06:28;15.57;;;11.13;;
28802;SDS011;15949;55.656;37.422;2023-09-19T23:11:35;13.63;;;10.85;;
28802;SDS011;15949;55.656;37.422;2023-09-19T23:16:41;16.45;;;10.75;;
28802;SDS011;15949;55.656;37.422;2023-09-19T23:21:52;14.10;;;11.15;;
28802;SDS011;15949;55.656;37.422;2023-09-19T23:26:59;14.25;;;10.73;;
28802;SDS011;15949;55.656;37.422;2023-09-19T23:32:11;18.75;;;12.13;;
28802;SDS011;15949;55.656;37.422;2023-09-19T23:37:20;22.23;;;11.70;;
28802;SDS011;15949;55.656;37.422;2023-09-19T23:42:26;14.48;;;10.82;;
28802;SDS011;15949;55.656;37.422;2023-09-19T23:47:33;21.27;;;11.45;;
28802;SDS011;15949;55.656;37.422;2023-09-19T23:52:41;15.52;;;10.95;;
28802;SDS011;15949;55.656;37.422;2023-09-19T23:57:47;20.25;;;11.43;;
